createdAt,value
2022-12-14T00:02:06.815Z,2.90
2022-12-14T00:04:36.926Z,2.25
2022-12-14T00:07:09.510Z,3.42
2022-12-14T00:09:47.357Z,4.68
2022-12-14T00:12:17.423Z,4.80
2022-12-14T00:14:54.488Z,3.13
2022-12-14T00:17:24.770Z,4.70
2022-12-14T00:20:00.926Z,2.53
2022-12-14T00:22:32.704Z,3.65
2022-12-14T00:25:05.311Z,3.47
2022-12-14T00:27:37.923Z,3.17
2022-12-14T00:30:07.370Z,2.28
2022-12-14T00:32:41.609Z,4.60
2022-12-14T00:35:14.868Z,2.13
2022-12-14T00:37:48.987Z,3.65
2022-12-14T00:40:22.431Z,3.92
2022-12-14T00:42:54.637Z,2.97
2022-12-14T00:45:27.790Z,1.90
2022-12-14T00:48:02.796Z,4.45
2022-12-14T00:50:35.855Z,2.80
2022-12-14T00:53:11.401Z,4.10
2022-12-14T00:55:41.263Z,3.42
2022-12-14T00:58:15.540Z,8.15
2022-12-14T01:00:45.329Z,5.47
2022-12-14T01:03:18.057Z,2.20
2022-12-14T01:05:51.088Z,3.53
2022-12-14T01:08:20.618Z,2.42
2022-12-14T01:10:56.575Z,4.28
2022-12-14T01:13:27.559Z,5.43
2022-12-14T01:16:00.339Z,4.53
2022-12-14T01:18:35.667Z,5.80
2022-12-14T01:21:30.550Z,6.07
2022-12-14T01:24:04.574Z,3.30
2022-12-14T01:26:40.454Z,6.10
2022-12-14T01:29:08.670Z,3.30
2022-12-14T01:31:43.903Z,3.08
2022-12-14T01:34:19.087Z,3.28
2022-12-14T01:36:49.150Z,5.47
2022-12-14T01:39:19.556Z,4.72
2022-12-14T01:41:59.370Z,2.33
2022-12-14T01:44:32.828Z,2.40
2022-12-14T01:47:12.164Z,5.10
2022-12-14T01:49:47.358Z,1.98
2022-12-14T01:52:23.751Z,2.92
2022-12-14T01:54:57.416Z,3.40
2022-12-14T01:57:30.540Z,3.85
2022-12-14T02:00:07.537Z,8.32
2022-12-14T02:02:46.904Z,4.80
2022-12-14T02:05:16.655Z,7.13
2022-12-14T02:07:49.072Z,7.90
2022-12-14T02:10:24.671Z,4.55
2022-12-14T02:12:58.897Z,3.67
2022-12-14T02:15:31.307Z,6.93
2022-12-14T02:18:01.811Z,3.80
2022-12-14T02:20:38.510Z,5.82
2022-12-14T02:23:37.105Z,5.03
2022-12-14T02:26:36.616Z,8.30
2022-12-14T02:29:14.091Z,5.78
2022-12-14T02:31:59.983Z,7.28
2022-12-14T02:34:45.530Z,6.72
2022-12-14T02:37:23.936Z,7.10
2022-12-14T02:40:14.588Z,5.55
2022-12-14T02:42:58.408Z,4.72
2022-12-14T02:45:42.995Z,6.32
2022-12-14T02:48:14.968Z,4.43
2022-12-14T02:50:47.479Z,4.15
2022-12-14T02:53:37.616Z,3.67
2022-12-14T02:56:15.263Z,4.45
2022-12-14T02:58:46.890Z,7.43
2022-12-14T03:01:21.159Z,4.50
2022-12-14T03:03:50.992Z,3.97
2022-12-14T03:06:27.053Z,4.32
2022-12-14T03:09:04.414Z,3.38
2022-12-14T03:11:49.308Z,4.75
2022-12-14T03:14:24.312Z,4.88
2022-12-14T03:16:52.450Z,5.78
2022-12-14T03:19:29.246Z,5.47
2022-12-14T03:22:05.852Z,5.00
2022-12-14T03:24:43.908Z,3.28
2022-12-14T03:27:21.378Z,4.55
2022-12-14T03:29:55.648Z,5.10
2022-12-14T03:32:32.890Z,4.28
2022-12-14T03:35:14.484Z,5.57
2022-12-14T03:37:52.927Z,4.30
2022-12-14T03:40:34.380Z,5.07
2022-12-14T03:43:04.867Z,7.95
2022-12-14T03:45:50.172Z,6.97
2022-12-14T03:48:27.717Z,5.90
2022-12-14T03:51:05.658Z,5.10
2022-12-14T03:53:42.199Z,6.30
2022-12-14T03:56:27.823Z,4.72
2022-12-14T03:59:12.962Z,4.75
2022-12-14T04:01:49.580Z,4.45
2022-12-14T04:04:29.781Z,5.43
2022-12-14T04:07:01.563Z,6.10
2022-12-14T04:09:38.028Z,5.63
2022-12-14T04:12:28.657Z,3.75
2022-12-14T04:15:35.889Z,7.00
2022-12-14T04:18:23.128Z,3.83
2022-12-14T04:20:55.636Z,6.15
2022-12-14T04:24:00.546Z,4.95
2022-12-14T04:26:35.871Z,4.80
2022-12-14T04:29:25.949Z,4.65
2022-12-14T04:32:05.332Z,3.50
2022-12-14T04:34:34.119Z,6.53
2022-12-14T04:37:06.459Z,5.13
2022-12-14T04:39:39.495Z,7.10
2022-12-14T04:42:14.292Z,6.35
2022-12-14T04:44:54.276Z,8.23
2022-12-14T04:47:26.692Z,5.68
2022-12-14T04:50:20.415Z,5.80
2022-12-14T04:53:04.212Z,5.13
2022-12-14T04:55:45.427Z,6.10
2022-12-14T04:58:27.080Z,6.80
2022-12-14T05:01:09.546Z,4.47
2022-12-14T05:03:40.658Z,5.88
2022-12-14T05:06:20.204Z,5.97
2022-12-14T05:09:07.482Z,3.92
2022-12-14T05:11:53.339Z,4.07
2022-12-14T05:14:36.190Z,6.70
2022-12-14T05:17:13.171Z,8.15
2022-12-14T05:19:54.522Z,6.05
2022-12-14T05:22:24.616Z,8.60
2022-12-14T05:24:58.315Z,3.70
2022-12-14T05:27:39.185Z,4.50
2022-12-14T05:30:15.693Z,6.25
2022-12-14T05:32:48.513Z,5.43
2022-12-14T05:35:24.165Z,5.63
2022-12-14T05:37:56.761Z,4.07
2022-12-14T05:40:27.613Z,7.75
2022-12-14T05:43:05.963Z,2.83
2022-12-14T05:45:39.102Z,5.57
2022-12-14T05:48:08.812Z,6.22
2022-12-14T05:50:41.847Z,9.13
2022-12-14T05:53:13.528Z,3.35
2022-12-14T05:55:49.658Z,5.57
2022-12-14T05:58:16.962Z,6.60
2022-12-14T06:00:47.988Z,5.82
2022-12-14T06:03:18.003Z,5.53
2022-12-14T06:05:48.037Z,8.13
2022-12-14T06:08:23.881Z,3.22
2022-12-14T06:10:53.741Z,6.93
2022-12-14T06:13:32.896Z,7.13
2022-12-14T06:16:28.541Z,5.13
2022-12-14T06:19:05.383Z,5.43
2022-12-14T06:21:38.241Z,9.32
2022-12-14T06:24:15.147Z,6.85
2022-12-14T06:26:47.853Z,5.43
2022-12-14T06:29:23.181Z,8.88
2022-12-14T06:31:56.686Z,6.20
2022-12-14T06:34:29.984Z,7.95
2022-12-14T06:37:05.052Z,5.43
2022-12-14T06:39:41.201Z,4.43
2022-12-14T06:42:14.686Z,5.97
2022-12-14T06:44:47.428Z,6.38
2022-12-14T06:47:22.323Z,6.65
2022-12-14T06:49:57.774Z,5.13
2022-12-14T06:52:31.221Z,6.43
2022-12-14T06:55:03.733Z,6.63
2022-12-14T06:57:43.073Z,5.78
2022-12-14T07:00:14.788Z,8.50
2022-12-14T07:02:48.420Z,7.43
2022-12-14T07:05:21.178Z,7.38
2022-12-14T07:07:54.430Z,7.28
2022-12-14T07:10:26.466Z,6.55
2022-12-14T07:12:56.845Z,6.20
2022-12-14T07:15:26.022Z,9.05
2022-12-14T07:18:00.896Z,5.32
2022-12-14T07:20:31.080Z,7.15
2022-12-14T07:23:04.679Z,6.38
2022-12-14T07:25:44.171Z,7.53
2022-12-14T07:28:21.835Z,6.72
2022-12-14T07:30:51.811Z,7.22
2022-12-14T07:33:22.317Z,2.83
2022-12-14T07:35:53.077Z,5.68
2022-12-14T07:38:23.271Z,8.40
2022-12-14T07:40:56.737Z,6.95
2022-12-14T07:43:30.215Z,8.38
2022-12-14T07:46:06.354Z,9.80
2022-12-14T07:48:39.847Z,5.55
2022-12-14T07:51:11.076Z,8.10
2022-12-14T07:53:47.404Z,7.82
2022-12-14T07:56:41.102Z,7.82
2022-12-14T07:59:12.158Z,9.30
2022-12-14T08:01:47.925Z,8.18
2022-12-14T08:04:21.019Z,6.82
2022-12-14T08:06:52.432Z,9.60
2022-12-14T08:09:22.921Z,7.30
2022-12-14T08:11:53.099Z,7.78
2022-12-14T08:14:26.801Z,7.40
2022-12-14T08:16:59.809Z,7.43
2022-12-14T08:19:28.963Z,8.77
2022-12-14T08:22:02.183Z,8.20
2022-12-14T08:24:31.595Z,6.47
2022-12-14T08:26:59.423Z,7.10
2022-12-14T08:29:32.721Z,3.58
2022-12-14T08:32:02.172Z,7.22
2022-12-14T08:34:31.263Z,10.75
2022-12-14T08:37:03.952Z,8.23
2022-12-14T08:39:36.986Z,6.68
2022-12-14T08:42:07.110Z,7.18
2022-12-14T08:44:40.542Z,5.85
2022-12-14T08:47:10.796Z,7.68
2022-12-14T08:49:41.159Z,8.45
2022-12-14T08:52:10.146Z,14.50
2022-12-14T08:54:44.339Z,8.07
2022-12-14T08:57:17.956Z,9.73
2022-12-14T09:00:03.964Z,7.43
2022-12-14T09:02:35.916Z,12.63
2022-12-14T09:05:10.487Z,12.25
2022-12-14T09:07:47.082Z,5.75
2022-12-14T09:10:22.141Z,5.88
2022-12-14T09:12:55.170Z,5.72
2022-12-14T09:15:28.818Z,10.52
2022-12-14T09:17:59.728Z,6.53
2022-12-14T09:20:30.135Z,7.70
2022-12-14T09:23:00.372Z,10.88
2022-12-14T09:25:29.517Z,8.45
2022-12-14T09:27:57.185Z,11.50
2022-12-14T09:30:30.403Z,7.95
2022-12-14T09:33:02.936Z,7.78
2022-12-14T09:35:31.298Z,9.55
2022-12-14T09:38:02.131Z,9.40
2022-12-14T09:40:35.985Z,11.20
2022-12-14T09:43:05.583Z,9.55
2022-12-14T09:45:36.213Z,8.27
2022-12-14T09:48:18.740Z,11.18
2022-12-14T09:50:49.995Z,10.88
2022-12-14T09:53:23.958Z,3.00
2022-12-14T09:55:56.768Z,10.30
2022-12-14T09:58:31.493Z,8.23
2022-12-14T10:01:17.281Z,8.73
2022-12-14T10:03:53.705Z,7.43
2022-12-14T10:06:27.203Z,5.30
2022-12-14T10:09:03.686Z,5.10
2022-12-14T10:11:47.635Z,12.52
2022-12-14T10:14:42.711Z,8.88
2022-12-14T10:17:14.352Z,2.78
2022-12-14T10:19:47.412Z,8.57
2022-12-14T10:22:26.345Z,12.65
2022-12-14T10:25:02.776Z,11.80
2022-12-14T10:28:09.171Z,8.77
2022-12-14T10:30:31.254Z,9.43
2022-12-14T10:33:17.090Z,5.35
2022-12-14T10:35:58.121Z,8.32
2022-12-14T10:38:43.182Z,15.07
2022-12-14T10:41:22.511Z,8.30
2022-12-14T10:44:08.564Z,10.68
2022-12-14T10:46:56.323Z,10.70
2022-12-14T10:49:40.736Z,12.05
2022-12-14T10:52:19.349Z,9.10
2022-12-14T10:54:49.346Z,7.25
2022-12-14T10:57:18.631Z,17.17
2022-12-14T11:00:07.238Z,13.13
2022-12-14T11:02:41.840Z,9.00
2022-12-14T11:05:21.015Z,15.35
2022-12-14T11:07:52.989Z,14.65
2022-12-14T11:10:27.407Z,11.55
2022-12-14T11:12:58.399Z,12.27
2022-12-14T11:15:33.841Z,13.88
2022-12-14T11:18:29.807Z,1.40
2022-12-14T11:21:01.491Z,2.95
2022-12-14T11:23:40.501Z,13.38
2022-12-14T11:26:16.632Z,14.30
2022-12-14T11:28:50.570Z,10.23
2022-12-14T11:31:29.146Z,7.57
2022-12-14T11:34:00.078Z,11.65
2022-12-14T11:36:36.400Z,10.18
2022-12-14T11:39:15.155Z,11.95
2022-12-14T11:42:01.755Z,7.13
2022-12-14T11:44:36.457Z,10.00
2022-12-14T11:47:13.276Z,12.02
2022-12-14T11:49:43.312Z,7.75
2022-12-14T11:52:18.715Z,16.23
2022-12-14T11:55:00.663Z,12.38
2022-12-14T11:57:34.999Z,13.13
2022-12-14T12:00:12.882Z,12.73
2022-12-14T12:03:06.750Z,11.90
2022-12-14T12:05:38.963Z,3.88
2022-12-14T12:08:19.463Z,10.48
2022-12-14T12:10:50.814Z,0.93
2022-12-14T12:13:32.374Z,11.60
2022-12-14T12:16:21.485Z,7.60
2022-12-14T12:19:09.480Z,10.68
2022-12-14T12:21:45.927Z,13.77
2022-12-14T12:24:21.452Z,7.38
2022-12-14T12:26:55.693Z,8.38
2022-12-14T12:29:40.828Z,5.18
2022-12-14T12:32:41.207Z,7.00
2022-12-14T12:35:12.707Z,10.25
2022-12-14T12:37:45.946Z,9.40
2022-12-14T12:40:46.028Z,13.00
2022-12-14T12:43:28.975Z,10.82
2022-12-14T12:46:04.796Z,7.60
2022-12-14T12:48:43.858Z,11.43
2022-12-14T12:51:18.973Z,12.52
2022-12-14T12:53:50.886Z,10.30
2022-12-14T12:56:21.482Z,10.55
2022-12-14T12:58:53.516Z,11.68
2022-12-14T13:01:26.401Z,3.05
2022-12-14T13:03:56.776Z,1.48
2022-12-14T13:06:55.903Z,14.40
2022-12-14T13:09:34.673Z,9.35
2022-12-14T13:12:11.662Z,11.63
2022-12-14T13:14:49.691Z,7.80
2022-12-14T13:17:29.255Z,6.40
2022-12-14T13:20:12.827Z,5.43
2022-12-14T13:22:45.956Z,5.63
2022-12-14T13:25:24.042Z,4.05
2022-12-14T13:28:16.101Z,13.35
2022-12-14T13:30:55.167Z,12.27
2022-12-14T13:33:42.937Z,10.50
2022-12-14T13:36:33.847Z,15.27
2022-12-14T13:39:09.417Z,7.07
2022-12-14T13:41:54.603Z,8.93
2022-12-14T13:44:37.454Z,11.15
2022-12-14T13:47:23.443Z,9.05
2022-12-14T13:50:35.459Z,11.63
2022-12-14T13:52:52.609Z,14.52
2022-12-14T13:55:32.402Z,13.10
2022-12-14T13:58:17.746Z,12.18
2022-12-14T14:00:48.118Z,9.60
2022-12-14T14:03:33.746Z,15.32
2022-12-14T14:06:12.702Z,12.43
2022-12-14T14:08:43.621Z,15.10
2022-12-14T14:11:39.328Z,10.40
2022-12-14T14:14:41.509Z,17.20
2022-12-14T14:17:19.792Z,11.88
2022-12-14T14:19:53.183Z,14.20
2022-12-14T14:22:26.034Z,2.10
2022-12-14T14:25:09.396Z,10.35
2022-12-14T14:27:45.747Z,13.02
2022-12-14T14:30:37.444Z,15.50
2022-12-14T14:36:36.221Z,14.30
2022-12-14T14:39:46.488Z,12.07
2022-12-14T14:42:05.257Z,12.55
2022-12-14T14:44:35.262Z,17.30
2022-12-14T14:47:17.209Z,10.88
2022-12-14T14:49:56.539Z,11.60
2022-12-14T14:52:44.494Z,17.10
2022-12-14T14:55:54.465Z,18.42
2022-12-14T14:58:39.913Z,15.15
2022-12-14T15:01:12.405Z,12.60
2022-12-14T15:03:45.318Z,13.52
2022-12-14T15:06:25.707Z,14.73
2022-12-14T15:09:07.602Z,16.55
2022-12-14T15:11:52.055Z,15.52
2022-12-14T15:14:35.178Z,19.38
2022-12-14T15:17:20.572Z,19.35
2022-12-14T15:19:56.590Z,14.23
2022-12-14T15:22:37.886Z,11.73
2022-12-14T15:25:12.064Z,16.40
2022-12-14T15:27:45.365Z,12.95
2022-12-14T15:30:20.231Z,13.05
2022-12-14T15:32:56.609Z,15.18
2022-12-14T15:35:42.834Z,18.58
2022-12-14T15:38:33.717Z,15.00
2022-12-14T15:41:16.342Z,13.05
2022-12-14T15:43:53.724Z,14.18
2022-12-14T15:46:33.850Z,12.10
2022-12-14T15:49:08.804Z,14.48
2022-12-14T15:51:45.619Z,13.77
2022-12-14T15:54:16.252Z,14.02
2022-12-14T15:56:51.438Z,16.00
2022-12-14T15:59:41.078Z,17.33
2022-12-14T16:02:24.292Z,16.40
2022-12-14T16:04:51.947Z,13.20
2022-12-14T16:07:28.662Z,12.80
2022-12-14T16:10:10.105Z,14.80
2022-12-14T16:12:45.475Z,17.00
2022-12-14T16:15:26.682Z,13.52
2022-12-14T16:18:02.771Z,11.73
2022-12-14T16:20:35.772Z,16.40
2022-12-14T16:23:20.753Z,16.75
2022-12-14T16:26:01.181Z,15.15
2022-12-14T16:28:35.193Z,14.68
2022-12-14T16:31:13.188Z,13.40
2022-12-14T16:33:50.190Z,15.27
2022-12-14T16:36:27.750Z,13.68
2022-12-14T16:39:04.692Z,15.70
2022-12-14T16:41:42.310Z,12.13
2022-12-14T16:44:35.226Z,14.70
2022-12-14T16:47:07.566Z,12.75
2022-12-14T16:49:41.841Z,15.98
2022-12-14T16:52:26.386Z,15.00
2022-12-14T16:55:26.717Z,15.40
2022-12-14T16:58:00.726Z,16.13
2022-12-14T17:00:33.094Z,11.55
2022-12-14T17:03:05.694Z,17.15
2022-12-14T17:05:34.570Z,16.77
2022-12-14T17:08:13.435Z,17.05
2022-12-14T17:10:43.010Z,17.85
2022-12-14T17:13:12.349Z,16.23
2022-12-14T17:16:00.953Z,16.27
2022-12-14T17:18:33.176Z,15.45
2022-12-14T17:21:01.068Z,12.40
2022-12-14T17:23:31.736Z,14.73
2022-12-14T17:26:02.384Z,14.32
2022-12-14T17:28:36.978Z,13.60
2022-12-14T17:31:07.267Z,15.88
2022-12-14T17:33:40.238Z,16.83
2022-12-14T17:36:11.262Z,18.60
2022-12-14T17:38:43.586Z,12.90
2022-12-14T17:41:27.523Z,15.45
2022-12-14T17:44:01.198Z,13.82
2022-12-14T17:46:30.998Z,13.35
2022-12-14T17:49:02.873Z,18.90
2022-12-14T17:51:37.847Z,16.15
2022-12-14T17:54:09.543Z,16.40
2022-12-14T17:56:41.068Z,16.20
2022-12-14T17:59:11.081Z,13.95
2022-12-14T18:01:47.004Z,14.73
2022-12-14T18:04:18.618Z,18.38
2022-12-14T18:06:48.956Z,19.77
2022-12-14T18:09:19.012Z,12.35
2022-12-14T18:12:14.456Z,13.43
2022-12-14T18:14:39.935Z,13.45
2022-12-14T18:17:12.719Z,12.73
2022-12-14T18:19:42.647Z,16.75
2022-12-14T18:22:11.886Z,13.80
2022-12-14T18:24:42.419Z,18.05
2022-12-14T18:27:12.368Z,15.05
2022-12-14T18:29:45.346Z,15.98
2022-12-14T18:32:17.395Z,14.30
2022-12-14T18:34:50.493Z,14.45
2022-12-14T18:37:23.205Z,17.88
2022-12-14T18:40:00.548Z,11.05
2022-12-14T18:42:36.223Z,14.13
2022-12-14T18:45:09.082Z,18.15
2022-12-14T18:47:42.728Z,19.58
2022-12-14T18:50:17.127Z,19.05
2022-12-14T18:52:46.466Z,13.60
2022-12-14T18:55:23.737Z,12.40
2022-12-14T18:57:54.786Z,14.90
2022-12-14T19:00:31.006Z,14.88
2022-12-14T19:03:06.031Z,15.65
2022-12-14T19:05:39.108Z,13.82
2022-12-14T19:08:10.414Z,17.75
2022-12-14T19:10:44.714Z,12.32
2022-12-14T19:13:25.846Z,13.43
2022-12-14T19:15:58.875Z,13.98
2022-12-14T19:18:34.456Z,11.90
2022-12-14T19:21:04.420Z,14.77
2022-12-14T19:23:31.679Z,16.05
2022-12-14T19:26:02.227Z,15.77
2022-12-14T19:28:38.154Z,13.73
2022-12-14T19:31:10.555Z,20.05
2022-12-14T19:33:43.764Z,22.05
2022-12-14T19:36:19.301Z,15.88
2022-12-14T19:38:50.986Z,15.75
2022-12-14T19:41:20.894Z,16.02
2022-12-14T19:43:54.012Z,16.85
2022-12-14T19:46:24.398Z,18.02
2022-12-14T19:48:59.314Z,13.50
2022-12-14T19:51:34.990Z,14.30
2022-12-14T19:54:10.408Z,14.20
2022-12-14T19:56:43.399Z,17.85
2022-12-14T19:59:16.309Z,15.07
2022-12-14T20:01:50.379Z,13.38
2022-12-14T20:04:20.235Z,17.63
2022-12-14T20:06:50.183Z,17.42
2022-12-14T20:09:25.642Z,19.20
2022-12-14T20:12:02.045Z,18.95
2022-12-14T20:14:40.146Z,13.10
2022-12-14T20:17:13.554Z,17.48
2022-12-14T20:19:51.901Z,17.63
2022-12-14T20:22:23.896Z,14.80
2022-12-14T20:24:56.327Z,15.23
2022-12-14T20:27:29.882Z,16.17
2022-12-14T20:29:59.398Z,14.07
2022-12-14T20:32:29.122Z,15.80
2022-12-14T20:34:59.412Z,14.65
2022-12-14T20:37:31.688Z,13.63
2022-12-14T20:40:04.586Z,17.63
2022-12-14T20:42:40.668Z,15.00
2022-12-14T20:45:10.758Z,14.20
2022-12-14T20:47:46.289Z,15.45
2022-12-14T20:50:23.065Z,21.27
2022-12-14T20:52:58.809Z,11.25
2022-12-14T20:55:27.490Z,15.13
2022-12-14T20:57:56.540Z,19.15
2022-12-14T21:00:29.085Z,14.50
2022-12-14T21:03:04.145Z,18.15
2022-12-14T21:05:37.400Z,17.77
2022-12-14T21:08:07.578Z,13.82
2022-12-14T21:10:40.847Z,15.85
2022-12-14T21:13:11.201Z,10.48
2022-12-14T21:15:43.731Z,14.38
2022-12-14T21:18:16.277Z,16.25
2022-12-14T21:20:52.197Z,14.02
2022-12-14T21:23:24.782Z,16.70
2022-12-14T21:25:57.487Z,16.63
2022-12-14T21:28:32.136Z,14.07
2022-12-14T21:31:16.265Z,13.52
2022-12-14T21:33:49.888Z,14.43
2022-12-14T21:36:20.763Z,13.77
2022-12-14T21:38:53.859Z,13.55
2022-12-14T21:41:38.818Z,13.05
2022-12-14T21:44:09.201Z,15.23
2022-12-14T21:46:42.815Z,13.20
2022-12-14T21:49:14.191Z,13.05
2022-12-14T21:51:42.964Z,12.65
2022-12-14T21:54:16.816Z,12.30
2022-12-14T21:57:05.522Z,18.95
2022-12-14T21:59:40.273Z,13.60
2022-12-14T22:02:13.531Z,14.35
2022-12-14T22:04:46.972Z,17.45
2022-12-14T22:07:20.853Z,13.98
2022-12-14T22:09:49.728Z,13.48
2022-12-14T22:12:27.101Z,12.98
2022-12-14T22:14:54.324Z,12.88
2022-12-14T22:17:24.576Z,15.30
2022-12-14T22:20:00.031Z,13.88
2022-12-14T22:22:38.026Z,15.65
2022-12-14T22:25:10.698Z,12.20
2022-12-14T22:27:42.448Z,12.80
2022-12-14T22:30:14.608Z,11.60
2022-12-14T22:32:48.674Z,16.67
2022-12-14T22:35:22.115Z,13.77
2022-12-14T22:37:55.530Z,14.02
2022-12-14T22:40:24.797Z,16.63
2022-12-14T22:42:56.175Z,15.90
2022-12-14T22:45:28.688Z,11.82
2022-12-14T22:48:03.854Z,15.85
2022-12-14T22:50:33.408Z,15.50
2022-12-14T22:53:06.587Z,11.32
2022-12-14T22:55:43.842Z,9.80
2022-12-14T22:58:25.764Z,16.05
2022-12-14T23:00:56.852Z,11.00
2022-12-14T23:03:29.329Z,13.80
2022-12-14T23:06:04.866Z,13.65
2022-12-14T23:08:37.930Z,13.63
2022-12-14T23:11:26.528Z,11.23
2022-12-14T23:14:18.328Z,12.02
2022-12-14T23:17:06.733Z,12.20
2022-12-14T23:19:54.274Z,13.15
2022-12-14T23:22:42.336Z,13.15
2022-12-14T23:25:33.994Z,10.85
2022-12-14T23:28:22.149Z,10.68
2022-12-14T23:31:14.827Z,11.20
2022-12-14T23:34:03.294Z,12.07
2022-12-14T23:36:48.425Z,12.20
2022-12-14T23:39:33.678Z,14.55
2022-12-14T23:42:19.328Z,12.23
2022-12-14T23:45:04.353Z,14.20
2022-12-14T23:47:49.545Z,12.70
2022-12-14T23:50:37.630Z,12.88
2022-12-14T23:53:25.749Z,11.80
2022-12-14T23:56:14.450Z,15.50
2022-12-14T23:58:59.636Z,12.45
